Time;durP1;ratioP1;P1;durP2;ratioP2;P2;SDS_P1;SDS_P2;PMS_P1;PMS_P2;Temp;Humidity;BMP_temperature;BMP_pressure;BME280_temperature;BME280_humidity;BME280_pressure;Samples;Min_cycle;Max_cycle;Signal;HPM_P1;HPM_P2
2021/12/19 00:01:57;;;;;;;4.20;2.85;;;10.90;78.70;;;;;;5036279;28;20024;-85
2021/12/19 00:04:42;;;;;;;5.63;3.25;;;10.90;78.70;;;;;;5037299;28;20147;-85
2021/12/19 00:10:04;;;;;;;4.68;2.90;;;11.00;78.80;;;;;;5053472;28;20040;-85
2021/12/19 00:12:32;;;;;;;4.13;2.83;;;10.90;78.70;;;;;;5035628;28;20045;-84
2021/12/19 00:14:59;;;;;;;5.00;3.10;;;10.90;78.70;;;;;;5020264;28;20355;-85
2021/12/19 00:17:32;;;;;;;4.38;2.95;;;10.90;78.70;;;;;;5052996;28;20076;-86
2021/12/19 00:20:03;;;;;;;4.97;3.05;;;10.90;78.70;;;;;;5037583;28;20029;-85
2021/12/19 00:22:32;;;;;;;5.35;3.33;;;10.90;78.70;;;;;;5037012;28;20029;-86
2021/12/19 00:25:01;;;;;;;3.97;2.60;;;10.90;78.70;;;;;;5020549;28;20087;-86
2021/12/19 00:27:28;;;;;;;4.20;2.80;;;10.90;78.70;;;;;;5021155;28;20098;-86
2021/12/19 00:29:59;;;;;;;3.90;2.58;;;10.90;78.70;;;;;;5021309;28;20026;-85
2021/12/19 00:32:40;;;;;;;4.38;2.95;;;10.90;78.70;;;;;;5036434;28;20045;-85
2021/12/19 00:35:19;;;;;;;3.38;2.55;;;10.90;78.70;;;;;;5053270;28;20040;-85
2021/12/19 00:37:46;;;;;;;;;;;10.90;78.70;;;;;;5037446;28;20037;-85
2021/12/19 00:40:18;;;;;;;3.95;2.42;;;10.90;78.60;;;;;;5036049;28;19905;-85
2021/12/19 00:42:51;;;;;;;3.92;2.50;;;10.90;78.50;;;;;;5018670;28;20049;-84
2021/12/19 00:45:40;;;;;;;4.93;2.83;;;10.90;78.70;;;;;;5037433;28;20049;-85
2021/12/19 00:48:10;;;;;;;3.70;2.45;;;10.80;78.70;;;;;;5036789;28;20044;-85
2021/12/19 00:50:37;;;;;;;4.30;2.90;;;10.80;78.60;;;;;;5036430;28;20033;-85
2021/12/19 00:53:08;;;;;;;3.60;2.33;;;10.80;78.60;;;;;;5053183;28;20033;-85
2021/12/19 00:55:36;;;;;;;3.90;2.63;;;10.80;78.70;;;;;;5019938;28;20033;-86
2021/12/19 00:58:03;;;;;;;5.65;3.03;;;10.80;78.70;;;;;;5036146;28;20457;-86
2021/12/19 01:00:34;;;;;;;5.00;3.20;;;10.80;78.70;;;;;;5037480;28;20124;-85
2021/12/19 01:03:14;;;;;;;4.38;2.58;;;10.80;78.60;;;;;;5036875;28;20251;-85
2021/12/19 01:05:47;;;;;;;3.92;2.75;;;10.80;78.60;;;;;;5036383;28;20029;-85
2021/12/19 01:08:17;;;;;;;4.43;3.00;;;10.80;78.60;;;;;;5036970;28;20470;-86
2021/12/19 01:10:48;;;;;;;4.85;2.97;;;10.80;78.60;;;;;;5023463;28;20128;-85
2021/12/19 01:13:19;;;;;;;4.72;2.95;;;10.80;78.60;;;;;;5040532;28;20151;-85
2021/12/19 01:15:57;;;;;;;3.53;2.63;;;10.80;78.60;;;;;;5041394;28;20039;-86
2021/12/19 01:18:24;;;;;;;4.32;2.70;;;10.80;78.60;;;;;;5056037;28;20493;-85
2021/12/19 01:20:56;;;;;;;4.78;2.65;;;10.80;78.60;;;;;;5055594;28;20053;-87
2021/12/19 01:23:23;;;;;;;3.95;2.78;;;10.80;78.60;;;;;;5039939;28;20464;-86
2021/12/19 01:25:51;;;;;;;4.07;2.78;;;10.80;78.60;;;;;;5023056;28;20032;-86
2021/12/19 01:28:25;;;;;;;4.28;2.60;;;10.80;78.70;;;;;;5056180;28;20029;-85
2021/12/19 01:30:58;;;;;;;4.38;2.70;;;10.80;78.70;;;;;;5023885;28;20037;-85
2021/12/19 01:33:29;;;;;;;4.35;2.90;;;10.80;78.70;;;;;;5057501;28;20033;-85
2021/12/19 01:36:03;;;;;;;4.68;3.03;;;10.70;78.60;;;;;;5056391;28;20037;-85
2021/12/19 01:38:30;;;;;;;4.10;2.83;;;10.70;78.60;;;;;;5022562;28;20493;-85
2021/12/19 01:41:04;;;;;;;4.10;2.80;;;10.70;78.60;;;;;;5056644;28;20108;-85
2021/12/19 01:43:31;;;;;;;4.38;2.75;;;10.70;78.60;;;;;;5039152;28;20033;-85
2021/12/19 01:45:58;;;;;;;3.85;2.70;;;10.70;78.70;;;;;;5039627;28;20044;-85
2021/12/19 01:48:24;;;;;;;4.53;2.90;;;10.70;78.70;;;;;;5039341;28;20481;-85
2021/12/19 01:50:53;;;;;;;4.50;3.15;;;10.70;78.70;;;;;;5055987;28;20017;-85
2021/12/19 01:53:20;;;;;;;4.75;3.15;;;10.70;78.70;;;;;;5038957;28;20033;-85
2021/12/19 01:55:49;;;;;;;4.18;2.65;;;10.70;78.70;;;;;;5023305;28;20526;-86
2021/12/19 01:58:20;;;;;;;4.88;2.75;;;10.70;78.70;;;;;;5023906;28;20508;-86
2021/12/19 02:00:57;;;;;;;6.45;3.60;;;10.70;78.70;;;;;;5057014;28;20029;-86
2021/12/19 02:03:24;;;;;;;4.10;2.63;;;10.60;78.60;;;;;;5039122;28;20037;-86
2021/12/19 02:06:01;;;;;;;4.68;3.03;;;10.70;78.70;;;;;;5039649;28;20320;-86
2021/12/19 02:08:27;;;;;;;4.53;3.15;;;10.70;78.70;;;;;;5039041;28;20492;-86
2021/12/19 02:11:00;;;;;;;5.07;3.05;;;10.60;78.60;;;;;;5039698;28;20040;-85
2021/12/19 02:13:38;;;;;;;5.45;3.60;;;10.60;78.60;;;;;;5038537;28;20047;-85
2021/12/19 02:16:06;;;;;;;4.82;3.10;;;10.60;78.70;;;;;;5055367;28;20053;-86
2021/12/19 02:18:32;;;;;;;5.93;3.22;;;10.70;78.70;;;;;;5022190;28;20025;-85
2021/12/19 02:20:59;;;;;;;5.38;3.47;;;10.60;78.70;;;;;;5005412;28;20049;-86
2021/12/19 02:23:30;;;;;;;5.57;3.38;;;10.60;78.70;;;;;;5038276;28;20029;-86
2021/12/19 02:25:56;;;;;;;5.13;3.10;;;10.60;78.70;;;;;;5038768;28;20024;-85
2021/12/19 02:28:25;;;;;;;5.38;3.20;;;10.60;78.70;;;;;;5038795;28;20047;-85
2021/12/19 02:30:55;;;;;;;4.80;3.00;;;10.60;78.70;;;;;;5038238;28;20024;-85
2021/12/19 02:33:25;;;;;;;6.65;3.72;;;10.60;78.70;;;;;;5038539;28;20127;-86
2021/12/19 02:36:04;;;;;;;5.43;3.47;;;10.60;78.70;;;;;;5055199;28;20044;-85
2021/12/19 02:49:31;;;;;;;5.38;3.33;;;10.50;78.70;;;;;;5054998;28;20087;-86
2021/12/19 02:51:57;;;;;;;4.95;2.97;;;10.50;78.70;;;;;;5037684;28;20134;-86
2021/12/19 02:54:24;;;;;;;4.88;2.90;;;10.50;78.70;;;;;;5037891;28;20201;-86
2021/12/19 02:56:51;;;;;;;5.28;3.03;;;10.50;78.80;;;;;;5037896;28;20069;-86
2021/12/19 02:59:22;;;;;;;5.80;3.40;;;10.60;78.80;;;;;;5037695;28;20025;-86
2021/12/19 03:01:49;;;;;;;4.80;3.00;;;10.50;78.80;;;;;;5038049;28;20028;-86
2021/12/19 03:04:17;;;;;;;6.25;3.60;;;10.50;78.80;;;;;;5055390;28;20024;-86
2021/12/19 03:06:48;;;;;;;5.20;3.20;;;10.50;78.70;;;;;;5039002;28;20024;-85
2021/12/19 03:09:33;;;;;;;5.32;3.13;;;10.50;78.80;;;;;;5038315;28;20037;-85
2021/12/19 03:12:29;;;;;;;5.78;3.33;;;10.50;78.70;;;;;;5038113;28;20393;-86
2021/12/19 03:18:02;;;;;;;5.75;3.13;;;10.50;78.70;;;;;;5041412;28;20033;-85
2021/12/19 03:20:37;;;;;;;4.72;2.85;;;10.50;78.70;;;;;;5049561;28;20044;-87
2021/12/19 03:23:04;;;;;;;;;;;10.50;78.70;;;;;;5050949;28;20052;-86
2021/12/19 03:25:40;;;;;;;5.38;3.17;;;10.50;78.70;;;;;;5050719;28;19912;-87
2021/12/19 03:28:18;;;;;;;6.28;3.53;;;10.40;78.60;;;;;;5054996;28;20031;-86
2021/12/19 03:30:46;;;;;;;7.22;3.88;;;10.40;78.80;;;;;;5037305;28;20037;-86
2021/12/19 03:33:15;;;;;;;5.43;3.13;;;10.40;78.80;;;;;;5037207;28;20044;-85
2021/12/19 03:35:41;;;;;;;6.15;3.63;;;10.50;78.80;;;;;;5037706;28;20111;-86
2021/12/19 03:38:13;;;;;;;6.63;3.80;;;10.40;78.80;;;;;;5053892;28;20021;-86
2021/12/19 03:40:44;;;;;;;5.00;3.13;;;10.50;78.90;;;;;;5037532;28;20489;-85
2021/12/19 03:43:18;;;;;;;6.80;3.72;;;10.50;78.90;;;;;;5037293;28;20079;-86
2021/12/19 03:45:46;;;;;;;6.60;3.80;;;10.50;78.90;;;;;;5037386;28;20043;-86
2021/12/19 03:48:16;;;;;;;5.20;3.22;;;10.50;78.80;;;;;;5037862;28;20112;-87
2021/12/19 03:50:46;;;;;;;5.80;3.53;;;10.50;78.90;;;;;;5038066;28;20074;-86
2021/12/19 03:53:16;;;;;;;5.82;3.50;;;10.40;78.80;;;;;;5054547;28;20084;-85
2021/12/19 03:55:45;;;;;;;5.95;3.53;;;10.50;78.90;;;;;;5039665;28;20042;-86
2021/12/19 03:58:25;;;;;;;5.78;3.20;;;10.50;78.80;;;;;;5041260;28;20035;-86
2021/12/19 04:00:59;;;;;;;6.07;3.67;;;10.40;78.80;;;;;;5037880;28;20021;-86
2021/12/19 04:03:28;;;;;;;5.87;3.23;;;10.50;78.90;;;;;;5037628;28;20037;-85
2021/12/19 04:05:59;;;;;;;4.93;3.47;;;10.50;78.90;;;;;;5039122;28;20042;-87
2021/12/19 04:08:34;;;;;;;4.47;2.92;;;10.40;78.80;;;;;;5022557;28;20040;-86
2021/12/19 04:11:03;;;;;;;5.57;3.22;;;10.40;78.80;;;;;;5037739;28;20086;-86
2021/12/19 04:13:29;;;;;;;5.72;3.47;;;10.50;78.90;;;;;;5036892;28;20056;-86
2021/12/19 04:15:56;;;;;;;5.90;3.25;;;10.50;78.90;;;;;;5037010;28;20381;-86
2021/12/19 04:18:25;;;;;;;4.90;3.00;;;10.50;78.90;;;;;;5036934;28;20031;-87
2021/12/19 04:20:58;;;;;;;4.65;2.97;;;10.50;78.90;;;;;;5036246;28;20064;-86
2021/12/19 04:23:26;;;;;;;5.15;3.20;;;10.40;78.90;;;;;;5036714;28;20033;-87
2021/12/19 04:26:01;;;;;;;5.35;3.10;;;10.40;78.80;;;;;;5042442;28;20039;-86
2021/12/19 04:28:35;;;;;;;5.40;3.15;;;10.40;78.80;;;;;;5056110;28;20041;-86
2021/12/19 04:31:02;;;;;;;4.95;2.75;;;10.50;78.80;;;;;;5036817;28;20028;-84
2021/12/19 04:33:32;;;;;;;4.85;2.95;;;10.40;78.80;;;;;;5020245;28;20048;-86
2021/12/19 04:36:04;;;;;;;4.32;2.85;;;10.50;78.90;;;;;;5037625;28;20476;-85
2021/12/19 04:52:21;;;;;;;5.70;3.53;;;10.40;78.80;;;;;;5058703;28;20037;-86
2021/12/19 04:57:41;;;;;;;5.93;3.38;;;10.40;78.80;;;;;;5041571;28;20454;-85
2021/12/19 05:00:16;;;;;;;5.63;3.17;;;10.40;78.90;;;;;;5040863;28;20029;-86
2021/12/19 05:03:01;;;;;;;5.18;2.85;;;10.40;78.90;;;;;;5041098;28;20049;-85
2021/12/19 05:16:08;;;;;;;5.70;3.17;;;10.40;78.80;;;;;;5057273;28;20449;-88
2021/12/19 05:18:37;;;;;;;4.65;3.10;;;10.40;78.90;;;;;;5039824;28;20496;-85
2021/12/19 05:21:24;;;;;;;5.30;3.20;;;10.40;79.00;;;;;;5056079;28;20080;-87
2021/12/19 05:24:18;;;;;;;6.20;4.00;;;10.40;79.10;;;;;;5040551;28;20538;-87
2021/12/19 05:26:44;;;;;;;5.45;3.17;;;10.40;79.00;;;;;;5055983;28;20032;-86
2021/12/19 05:29:11;;;;;;;4.60;3.10;;;10.40;79.00;;;;;;5040676;28;20043;-86
2021/12/19 05:31:42;;;;;;;4.88;3.05;;;10.40;79.00;;;;;;5040535;28;20055;-86
2021/12/19 05:34:12;;;;;;;5.82;3.70;;;10.40;79.00;;;;;;5039675;28;20130;-86
2021/12/19 05:45:12;;;;;;;4.78;3.15;;;10.40;79.00;;;;;;5056624;28;20025;-87
2021/12/19 05:47:50;;;;;;;5.60;3.00;;;10.40;79.00;;;;;;5042508;28;20182;-86
2021/12/19 05:50:24;;;;;;;4.22;2.92;;;10.40;79.00;;;;;;5043088;28;20067;-86
2021/12/19 05:52:50;;;;;;;5.70;3.40;;;10.40;79.00;;;;;;5040157;28;20102;-87
2021/12/19 05:55:17;;;;;;;5.57;2.88;;;10.40;79.00;;;;;;5039366;28;20596;-86
2021/12/19 05:57:44;;;;;;;4.38;2.78;;;10.40;79.00;;;;;;5038835;28;20059;-86
2021/12/19 06:00:20;;;;;;;5.40;3.15;;;10.40;79.00;;;;;;5038957;28;20094;-87
2021/12/19 06:02:51;;;;;;;4.45;3.03;;;10.40;79.10;;;;;;5040557;28;20032;-86
2021/12/19 06:05:20;;;;;;;5.00;3.33;;;10.40;79.00;;;;;;5056986;28;20032;-86
2021/12/19 06:07:51;;;;;;;5.25;2.97;;;10.40;79.00;;;;;;5038917;28;20029;-86
2021/12/19 06:10:17;;;;;;;4.85;2.83;;;10.40;79.00;;;;;;5039581;28;20037;-86
2021/12/19 06:12:44;;;;;;;5.30;3.25;;;10.40;79.00;;;;;;5045361;28;20484;-87
2021/12/19 06:15:13;;;;;;;4.70;2.97;;;10.40;79.00;;;;;;5052176;28;20029;-87
2021/12/19 06:17:41;;;;;;;5.60;3.42;;;10.40;79.10;;;;;;5048973;28;20426;-87
2021/12/19 06:20:10;;;;;;;4.43;3.05;;;10.40;79.00;;;;;;5039242;28;20051;-86
2021/12/19 06:22:38;;;;;;;4.97;2.88;;;10.50;79.10;;;;;;5022570;28;20039;-87
2021/12/19 06:25:07;;;;;;;3.58;2.35;;;10.50;79.10;;;;;;5039717;28;20090;-87
2021/12/19 06:27:34;;;;;;;4.40;2.70;;;10.40;79.00;;;;;;5055897;28;20028;-86
2021/12/19 06:30:00;;;;;;;4.75;3.10;;;10.40;79.00;;;;;;5038447;28;20108;-86
2021/12/19 06:32:26;;;;;;;4.55;3.10;;;10.50;79.00;;;;;;5039433;28;20032;-85
2021/12/19 06:34:52;;;;;;;4.72;2.63;;;10.50;79.00;;;;;;5037851;28;20037;-85
2021/12/19 06:37:21;;;;;;;5.32;3.00;;;10.50;79.00;;;;;;5038457;28;20078;-85
2021/12/19 06:39:47;;;;;;;4.68;2.83;;;10.40;79.00;;;;;;5038945;28;20059;-85
2021/12/19 06:42:13;;;;;;;4.40;2.70;;;10.50;79.00;;;;;;5055149;28;20021;-87
2021/12/19 06:44:39;;;;;;;3.67;2.35;;;10.50;79.00;;;;;;5038301;28;20021;-86
2021/12/19 06:47:07;;;;;;;4.15;2.38;;;10.50;79.00;;;;;;5038798;28;20082;-88
2021/12/19 06:49:34;;;;;;;3.92;2.30;;;10.50;79.00;;;;;;5021998;28;20033;-86
2021/12/19 06:52:14;;;;;;;3.83;2.30;;;10.50;79.00;;;;;;5022785;28;20367;-86
2021/12/19 06:54:40;;;;;;;3.53;2.28;;;10.50;79.10;;;;;;5022924;28;20471;-85
2021/12/19 06:57:09;;;;;;;3.42;2.15;;;10.50;79.00;;;;;;5038408;28;20029;-87
2021/12/19 06:59:35;;;;;;;3.03;2.00;;;10.50;79.00;;;;;;5054452;28;20044;-86
2021/12/19 07:02:01;;;;;;;2.63;1.90;;;10.50;79.00;;;;;;5037970;28;20022;-87
2021/12/19 07:04:29;;;;;;;2.20;1.80;;;10.50;79.00;;;;;;5038994;28;20036;-85
2021/12/19 07:07:05;;;;;;;3.03;1.98;;;10.50;79.00;;;;;;5039223;28;20083;-86
2021/12/19 07:09:31;;;;;;;2.67;1.90;;;10.50;79.00;;;;;;5038384;28;20032;-86
2021/12/19 07:12:08;;;;;;;2.88;1.75;;;10.50;79.00;;;;;;5039346;28;20115;-87
2021/12/19 07:14:34;;;;;;;2.53;1.70;;;10.50;79.00;;;;;;5037048;28;20417;-86
2021/12/19 07:17:02;;;;;;;2.67;2.05;;;10.50;79.00;;;;;;5038008;28;20028;-86
2021/12/19 07:19:28;;;;;;;2.47;1.67;;;10.50;79.00;;;;;;5038130;28;20481;-86
2021/12/19 07:21:57;;;;;;;2.47;1.70;;;10.50;79.00;;;;;;5022775;28;20053;-86
2021/12/19 07:24:42;;;;;;;1.98;1.52;;;10.60;79.00;;;;;;5037596;28;20029;-87
2021/12/19 07:27:14;;;;;;;2.58;1.60;;;10.50;79.00;;;;;;5039093;28;20036;-87
2021/12/19 07:29:47;;;;;;;1.88;1.45;;;10.50;78.90;;;;;;5038574;28;20087;-87
2021/12/19 07:32:16;;;;;;;2.22;1.70;;;10.50;78.90;;;;;;5053992;28;20103;-88
2021/12/19 07:34:46;;;;;;;1.70;1.35;;;10.50;78.90;;;;;;5037659;28;20089;-88
2021/12/19 07:37:36;;;;;;;1.50;1.13;;;10.50;78.90;;;;;;5038891;28;20087;-86
2021/12/19 07:40:21;;;;;;;1.88;1.30;;;10.50;78.90;;;;;;5054200;28;20036;-86
2021/12/19 07:42:47;;;;;;;2.10;1.70;;;10.50;78.90;;;;;;5053783;28;20029;-84
2021/12/19 07:45:16;;;;;;;1.60;1.40;;;10.50;78.90;;;;;;5036738;28;20064;-87
2021/12/19 07:47:45;;;;;;;1.77;1.33;;;10.50;78.90;;;;;;5037745;28;20020;-86
2021/12/19 07:50:12;;;;;;;1.30;1.20;;;10.50;78.90;;;;;;5037007;28;20017;-86
2021/12/19 07:52:39;;;;;;;1.13;1.10;;;10.50;79.00;;;;;;5053503;28;20048;-85
2021/12/19 07:55:06;;;;;;;1.83;1.45;;;10.50;79.00;;;;;;5037148;28;20029;-84
2021/12/19 07:57:32;;;;;;;1.60;1.42;;;10.50;79.00;;;;;;5036483;28;20166;-85
2021/12/19 07:59:57;;;;;;;2.08;1.45;;;10.50;78.90;;;;;;5036890;28;20060;-84
2021/12/19 08:02:27;;;;;;;1.48;1.13;;;10.50;78.90;;;;;;5036695;28;20036;-87
2021/12/19 08:04:53;;;;;;;1.20;1.10;;;10.50;78.90;;;;;;5020309;28;20044;-84
2021/12/19 08:07:23;;;;;;;1.88;1.23;;;10.50;78.90;;;;;;5036530;28;20354;-86
2021/12/19 08:12:28;;;;;;;1.33;1.08;;;10.50;78.90;;;;;;5053395;28;20068;-86
2021/12/19 08:14:56;;;;;;;1.35;1.10;;;10.50;78.80;;;;;;5036661;28;20025;-85
2021/12/19 08:17:27;;;;;;;1.58;1.10;;;10.50;78.90;;;;;;5053213;28;20032;-86
2021/12/19 08:19:55;;;;;;;0.90;0.90;;;10.50;78.90;;;;;;5025726;28;20024;-86
2021/12/19 08:22:24;;;;;;;1.27;1.17;;;10.50;78.90;;;;;;5044260;28;20071;-87
2021/12/19 08:24:52;;;;;;;1.50;1.00;;;10.50;78.90;;;;;;5027074;28;20607;-86
2021/12/19 08:27:21;;;;;;;1.25;1.00;;;10.50;79.00;;;;;;5026670;28;20026;-87
2021/12/19 08:29:54;;;;;;;1.33;1.23;;;10.50;78.90;;;;;;5060064;28;20029;-87
2021/12/19 08:32:24;;;;;;;1.20;1.00;;;10.50;78.90;;;;;;5043346;28;20128;-88
2021/12/19 08:34:50;;;;;;;0.82;0.82;;;10.50;78.90;;;;;;5059564;28;20029;-87
2021/12/19 08:37:19;;;;;;;1.08;0.98;;;10.50;78.90;;;;;;5059592;28;20116;-87
2021/12/19 08:39:48;;;;;;;1.20;1.10;;;10.50;78.90;;;;;;5059564;28;20029;-87
2021/12/19 08:42:18;;;;;;;1.35;1.10;;;10.50;79.00;;;;;;5060326;28;20481;-87
2021/12/19 08:44:46;;;;;;;1.08;1.02;;;10.50;78.90;;;;;;5044173;28;20450;-87
2021/12/19 08:47:18;;;;;;;1.08;0.95;;;10.50;78.90;;;;;;5043362;28;20128;-87
2021/12/19 08:49:45;;;;;;;0.90;0.90;;;10.50;78.90;;;;;;5059374;28;20025;-88
2021/12/19 08:52:11;;;;;;;1.23;1.13;;;10.50;78.90;;;;;;5059862;28;20079;-86
2021/12/19 08:54:37;;;;;;;1.20;1.10;;;10.40;78.80;;;;;;5043401;28;20029;-85
2021/12/19 08:57:06;;;;;;;1.20;1.10;;;10.50;78.90;;;;;;5042540;28;20556;-85
2021/12/19 08:59:32;;;;;;;0.88;0.88;;;10.50;78.90;;;;;;5043056;28;20037;-86
2021/12/19 09:02:00;;;;;;;1.27;1.10;;;10.50;78.90;;;;;;5043570;28;20086;-86
2021/12/19 09:04:33;;;;;;;1.10;1.00;;;10.50;78.90;;;;;;5059831;28;20035;-84
2021/12/19 09:06:59;;;;;;;1.10;1.00;;;10.50;78.90;;;;;;5043181;28;20029;-85
2021/12/19 09:09:28;;;;;;;0.80;0.80;;;10.50;78.90;;;;;;5059528;28;20025;-85
2021/12/19 09:11:58;;;;;;;1.10;1.00;;;10.50;78.90;;;;;;5042800;28;20044;-90
2021/12/19 09:14:28;;;;;;;1.10;1.00;;;10.50;78.90;;;;;;5042736;28;20028;-86
2021/12/19 09:16:58;;;;;;;1.10;1.00;;;10.40;78.80;;;;;;5042812;28;20028;-88
2021/12/19 09:19:28;;;;;;;1.00;1.00;;;10.40;78.90;;;;;;5042265;28;20115;-86
2021/12/19 09:22:00;;;;;;;1.00;1.00;;;10.40;78.80;;;;;;5042767;28;20132;-93
2021/12/19 09:24:36;;;;;;;1.00;1.00;;;10.50;78.90;;;;;;5064552;28;20033;-91
2021/12/19 09:27:34;;;;;;;0.85;0.85;;;10.40;78.80;;;;;;5045689;28;20029;-91
2021/12/19 09:30:00;;;;;;;1.00;0.90;;;10.40;79.00;;;;;;5036859;28;20044;-89
2021/12/19 09:32:27;;;;;;;0.90;0.90;;;10.40;78.80;;;;;;5041498;28;20128;-91
2021/12/19 09:34:55;;;;;;;1.00;0.90;;;10.40;78.90;;;;;;5060513;28;20477;-92
2021/12/19 09:37:24;;;;;;;1.13;1.00;;;10.40;78.90;;;;;;5059881;28;20025;-91
2021/12/19 09:39:51;;;;;;;1.17;1.05;;;10.40;78.90;;;;;;5040800;28;20052;-90
2021/12/19 09:42:21;;;;;;;1.05;1.00;;;10.40;78.90;;;;;;5056629;28;20178;-88
2021/12/19 09:44:50;;;;;;;1.17;0.90;;;10.40;78.90;;;;;;5040266;28;20454;-89
2021/12/19 09:47:19;;;;;;;0.80;0.80;;;10.50;79.00;;;;;;5057010;28;20120;-91
2021/12/19 09:49:46;;;;;;;0.93;0.93;;;10.50;79.00;;;;;;5064080;28;20036;-88
2021/12/19 09:52:17;;;;;;;0.90;0.90;;;10.40;79.00;;;;;;5040634;28;20035;-89
2021/12/19 09:54:51;;;;;;;1.02;0.98;;;10.40;79.00;;;;;;5057060;28;20453;-90
2021/12/19 09:57:27;;;;;;;1.30;1.20;;;10.40;79.00;;;;;;5056670;28;20434;-91
2021/12/19 09:59:55;;;;;;;1.13;1.00;;;10.50;79.00;;;;;;5039854;28;20031;-90
2021/12/19 10:02:23;;;;;;;1.00;1.00;;;10.40;78.90;;;;;;5039860;28;20039;-91
2021/12/19 10:04:49;;;;;;;0.70;0.70;;;10.50;79.00;;;;;;5039468;28;20025;-92
2021/12/19 10:07:18;;;;;;;1.02;1.02;;;10.50;79.00;;;;;;5056239;28;20385;-91
2021/12/19 10:10:01;;;;;;;1.27;1.02;;;10.50;79.00;;;;;;5039259;28;20044;-92
2021/12/19 10:15:35;;;;;;;1.02;1.00;;;10.50;79.00;;;;;;5055616;28;20029;-92
2021/12/19 10:18:19;;;;;;;1.10;1.02;;;10.50;79.00;;;;;;5039300;28;20029;-93
2021/12/19 10:23:49;;;;;;;1.00;1.00;;;10.50;79.00;;;;;;5052342;28;20053;-93
2021/12/19 10:26:16;;;;;;;1.23;1.13;;;10.50;79.00;;;;;;5039688;28;20100;-92
2021/12/19 10:29:02;;;;;;;1.30;1.20;;;10.50;79.10;;;;;;5055423;28;20025;-91
2021/12/19 10:31:38;;;;;;;1.30;1.20;;;10.50;79.10;;;;;;5039027;28;20067;-91
2021/12/19 10:34:21;;;;;;;1.80;1.20;;;10.50;79.10;;;;;;5022044;28;20033;-80
2021/12/19 10:36:47;;;;;;;2.25;1.42;;;10.50;79.10;;;;;;5037526;28;20068;-82
2021/12/19 10:39:16;;;;;;;1.50;1.20;;;10.50;79.00;;;;;;5038467;28;20025;-85
2021/12/19 10:42:09;;;;;;;1.80;1.48;;;10.50;79.10;;;;;;5038262;28;20037;-91
2021/12/19 10:47:26;;;;;;;1.95;1.70;;;10.50;79.00;;;;;;5054655;28;20033;-90
2021/12/19 10:49:57;;;;;;;1.60;1.17;;;10.50;79.10;;;;;;5039097;28;20071;-91
2021/12/19 10:54:00;;;;;;;;;;;;;;;;;;;;;
2021/12/19 10:56:52;;;;;;;;;;;;;;;;;;;;;
2021/12/19 11:00:08;;;;;;;1.58;1.40;;;10.50;79.00;;;;;;5055872;28;20093;-89
2021/12/19 11:02:47;;;;;;;2.70;1.50;;;10.60;79.20;;;;;;5039231;28;20041;-92
2021/12/19 11:05:40;;;;;;;2.40;1.67;;;10.50;79.10;;;;;;5038661;28;20420;-88
2021/12/19 11:08:23;;;;;;;1.67;1.50;;;10.50;79.20;;;;;;5054644;28;20048;-86
2021/12/19 11:10:52;;;;;;;1.60;1.50;;;10.50;79.10;;;;;;5040770;28;20037;-92
2021/12/19 11:13:25;;;;;;;1.55;1.40;;;10.50;79.10;;;;;;5055657;28;20033;-86
2021/12/19 11:15:53;;;;;;;2.50;1.75;;;10.50;79.10;;;;;;5055545;28;20037;-88
2021/12/19 11:18:21;;;;;;;1.92;1.58;;;10.50;79.10;;;;;;5054641;28;20060;-85
2021/12/19 11:20:50;;;;;;;2.58;1.60;;;10.60;79.10;;;;;;5039383;28;20029;-87
2021/12/19 11:23:16;;;;;;;3.30;1.58;;;10.60;79.50;;;;;;5037256;28;20575;-88
2021/12/19 11:25:43;;;;;;;3.15;1.75;;;10.60;79.10;;;;;;5037289;28;20119;-85
2021/12/19 11:28:10;;;;;;;1.90;1.70;;;10.60;79.10;;;;;;5054053;28;20112;-85
2021/12/19 11:30:36;;;;;;;2.65;1.80;;;10.60;79.10;;;;;;5037358;28;20040;-84
2021/12/19 11:33:14;;;;;;;2.33;1.70;;;10.60;79.00;;;;;;5036920;28;20060;-84
2021/12/19 11:35:46;;;;;;;2.63;1.70;;;10.60;79.20;;;;;;5037603;28;20037;-86
2021/12/19 11:38:19;;;;;;;2.53;1.80;;;10.60;79.10;;;;;;5037927;28;20437;-84
2021/12/19 11:40:45;;;;;;;3.05;1.80;;;10.60;79.00;;;;;;5037391;28;20036;-85
2021/12/19 11:43:12;;;;;;;2.33;1.85;;;10.60;79.00;;;;;;5037194;28;20044;-85
2021/12/19 11:45:44;;;;;;;4.05;2.05;;;10.60;79.00;;;;;;5053881;28;20079;-87
2021/12/19 11:48:25;;;;;;;2.25;1.70;;;10.60;79.00;;;;;;5053990;28;20029;-86
2021/12/19 11:50:55;;;;;;;2.83;1.70;;;10.60;79.00;;;;;;5053738;28;20056;-86
2021/12/19 11:53:30;;;;;;;4.38;1.75;;;10.60;79.00;;;;;;5036524;28;20069;-86
2021/12/19 11:56:08;;;;;;;2.42;1.75;;;10.60;79.00;;;;;;5054964;28;20025;-86
2021/12/19 11:58:50;;;;;;;2.72;1.90;;;10.60;78.90;;;;;;5037444;28;20028;-86
2021/12/19 12:01:28;;;;;;;2.97;2.13;;;10.60;79.00;;;;;;5053727;28;20488;-86
2021/12/19 12:03:59;;;;;;;2.13;1.80;;;10.60;78.90;;;;;;5054405;28;20041;-86
2021/12/19 12:06:31;;;;;;;3.20;2.00;;;10.60;78.90;;;;;;5037144;28;20029;-85
2021/12/19 12:09:07;;;;;;;2.90;1.60;;;10.60;78.90;;;;;;5036922;28;20029;-86
2021/12/19 12:11:37;;;;;;;3.78;1.85;;;10.60;79.00;;;;;;5053477;28;20104;-85
2021/12/19 12:14:24;;;;;;;3.30;2.28;;;10.70;79.00;;;;;;5053287;28;20167;-85
2021/12/19 12:16:58;;;;;;;3.13;2.00;;;10.60;79.00;;;;;;5037216;28;20064;-86
2021/12/19 12:19:45;;;;;;;2.83;1.80;;;10.70;78.90;;;;;;5053443;28;20048;-86
2021/12/19 12:22:42;;;;;;;3.08;1.90;;;10.60;79.00;;;;;;5036554;28;20076;-85
2021/12/19 12:25:23;;;;;;;3.00;1.98;;;10.70;79.10;;;;;;5053850;28;20033;-86
2021/12/19 12:28:02;;;;;;;2.50;1.88;;;10.70;79.00;;;;;;5053091;28;20041;-85
2021/12/19 12:30:38;;;;;;;2.75;1.73;;;10.70;78.90;;;;;;5053023;28;20029;-86
2021/12/19 12:33:07;;;;;;;3.08;2.00;;;10.70;79.00;;;;;;5055427;28;20040;-86
2021/12/19 12:35:37;;;;;;;2.80;1.98;;;10.60;78.90;;;;;;5037731;28;20029;-86
2021/12/19 12:38:09;;;;;;;3.50;2.00;;;10.70;79.00;;;;;;5042472;28;20028;-87
2021/12/19 12:41:09;;;;;;;3.10;1.88;;;10.70;78.90;;;;;;5040899;28;20112;-86
2021/12/19 12:43:37;;;;;;;2.95;1.80;;;10.70;79.10;;;;;;5048265;28;20385;-86
2021/12/19 12:46:08;;;;;;;3.13;1.77;;;10.70;78.90;;;;;;5045834;28;20075;-86
2021/12/19 12:48:37;;;;;;;3.00;2.00;;;10.70;78.90;;;;;;5042237;28;20029;-86
2021/12/19 12:51:10;;;;;;;3.15;1.80;;;10.70;78.90;;;;;;5036817;28;20025;-86
2021/12/19 12:53:45;;;;;;;2.05;1.70;;;10.70;79.00;;;;;;5036696;28;20128;-87
2021/12/19 12:56:17;;;;;;;1.70;1.48;;;10.70;78.90;;;;;;5055108;28;20059;-90
2021/12/19 12:58:47;;;;;;;2.45;1.80;;;10.80;79.00;;;;;;5036906;28;20029;-90
2021/12/19 13:01:23;;;;;;;3.55;1.70;;;10.70;78.90;;;;;;5037132;28;20098;-92
2021/12/19 13:03:59;;;;;;;2.50;1.70;;;10.70;78.90;;;;;;5053333;28;20059;-90
2021/12/19 13:06:40;;;;;;;2.42;1.70;;;10.70;78.90;;;;;;5040679;28;20408;-91
2021/12/19 13:09:19;;;;;;;2.35;1.70;;;10.70;79.00;;;;;;5040673;28;20029;-93
2021/12/19 13:11:58;;;;;;;3.22;1.70;;;10.70;78.90;;;;;;5058106;28;20112;-91
2021/12/19 13:14:46;;;;;;;2.80;1.75;;;10.70;78.90;;;;;;5042339;28;20056;-88
2021/12/19 13:17:23;;;;;;;2.15;1.80;;;10.70;79.00;;;;;;5057987;28;20028;-85
2021/12/19 13:19:57;;;;;;;2.15;1.67;;;10.70;78.90;;;;;;5040237;28;20036;-87
2021/12/19 13:22:42;;;;;;;2.67;1.90;;;10.80;78.90;;;;;;5056810;28;20512;-89
2021/12/19 13:25:12;;;;;;;2.83;1.80;;;10.80;78.90;;;;;;5039987;28;20021;-88
2021/12/19 13:27:44;;;;;;;2.97;1.90;;;10.80;78.90;;;;;;5056310;28;20021;-88
2021/12/19 13:30:14;;;;;;;3.13;1.80;;;10.80;79.00;;;;;;5039891;28;20033;-88
2021/12/19 13:32:47;;;;;;;2.50;1.73;;;10.80;78.90;;;;;;5040360;28;20124;-88
2021/12/19 13:35:26;;;;;;;2.78;1.92;;;10.80;78.90;;;;;;5039527;28;20543;-86
2021/12/19 13:37:55;;;;;;;2.80;1.77;;;10.80;78.90;;;;;;5040026;28;20045;-87
2021/12/19 13:40:25;;;;;;;2.25;1.70;;;10.80;78.90;;;;;;5039555;28;20052;-87
2021/12/19 13:42:58;;;;;;;2.40;1.70;;;10.80;78.90;;;;;;5039935;28;20029;-87
2021/12/19 13:45:29;;;;;;;2.42;1.60;;;10.80;78.90;;;;;;5040041;28;20029;-87
2021/12/19 13:48:03;;;;;;;2.45;1.80;;;10.80;78.90;;;;;;5039289;28;20040;-87
2021/12/19 13:50:32;;;;;;;2.80;2.10;;;10.80;78.90;;;;;;5055909;28;20033;-87
2021/12/19 13:56:53;;;;;;;2.67;1.77;;;10.80;79.00;;;;;;5051569;28;20083;-86
2021/12/19 13:59:27;;;;;;;2.03;1.73;;;10.80;78.70;;;;;;5025132;28;20470;-87
2021/12/19 14:01:57;;;;;;;3.15;2.00;;;10.80;78.90;;;;;;5055939;28;20119;-87
2021/12/19 14:04:28;;;;;;;2.63;1.73;;;10.80;78.90;;;;;;5022831;28;20052;-87
2021/12/19 14:06:59;;;;;;;3.17;1.58;;;10.80;78.90;;;;;;5056176;28;20067;-87
2021/12/19 14:09:28;;;;;;;2.28;1.58;;;10.80;78.90;;;;;;5038883;28;20029;-87
2021/12/19 14:12:06;;;;;;;3.13;1.67;;;10.80;78.90;;;;;;5039510;28;20017;-87
2021/12/19 14:14:32;;;;;;;2.83;1.75;;;10.90;78.90;;;;;;5055755;28;20110;-87
2021/12/19 14:17:10;;;;;;;2.00;1.52;;;10.80;78.80;;;;;;5038745;28;20474;-87
2021/12/19 14:19:50;;;;;;;2.03;1.60;;;10.90;78.90;;;;;;5039059;28;20032;-87
2021/12/19 14:22:24;;;;;;;2.05;1.67;;;10.90;79.00;;;;;;5038304;28;20058;-86
2021/12/19 14:24:53;;;;;;;2.28;1.70;;;10.90;78.90;;;;;;5038565;28;20378;-87